createdAt,value
2017-12-06T00:00:54.035Z,97.83
2017-12-06T00:02:03.487Z,99.26
2017-12-06T00:03:12.705Z,99.35
2017-12-06T00:04:22.471Z,96.22
2017-12-06T00:05:31.673Z,95.75
2017-12-06T00:06:40.872Z,96.69
2017-12-06T00:07:50.930Z,96.6
2017-12-06T00:09:00.661Z,95.65
2017-12-06T00:10:10.715Z,95.84
2017-12-06T00:11:20.441Z,94.89
2017-12-06T00:12:30.417Z,96.03
2017-12-06T00:13:40.129Z,98.5
2017-12-06T00:14:49.588Z,98.12
2017-12-06T00:15:59.306Z,95.65
2017-12-06T00:17:09.300Z,96.03
2017-12-06T00:18:19.053Z,96.22
2017-12-06T00:19:29.022Z,98.69
2017-12-06T00:20:39.022Z,99.73
2017-12-06T00:21:49.098Z,97.74
2017-12-06T00:22:59.091Z,97.55
2017-12-06T00:24:08.962Z,95.08
2017-12-06T00:25:18.746Z,95.65
2017-12-06T00:26:28.763Z,98.59
2017-12-06T00:27:37.969Z,99.99
2017-12-06T00:28:47.644Z,97.36
2017-12-06T00:29:57.127Z,97.45
2017-12-06T00:31:07.126Z,96.6
2017-12-06T00:32:16.860Z,95.65
2017-12-06T00:33:26.841Z,99.83
2017-12-06T00:34:36.607Z,96.31
2017-12-06T00:35:46.609Z,95.27
2017-12-06T00:36:56.351Z,94.42
2017-12-06T00:38:06.365Z,94.6
2017-12-06T00:39:16.147Z,95.55
2017-12-06T00:40:25.609Z,94.89
2017-12-06T00:41:35.058Z,94.79
2017-12-06T00:42:44.777Z,94.23
2017-12-06T00:43:54.569Z,96.5
2017-12-06T00:45:04.608Z,98.5
2017-12-06T00:46:14.676Z,96.69
2017-12-06T00:47:24.786Z,96.03
2017-12-06T00:48:34.001Z,94.42
2017-12-06T00:49:43.754Z,94.51
2017-12-06T00:50:53.501Z,93.94
2017-12-06T00:52:03.234Z,96.12
2017-12-06T00:53:12.983Z,99.07
2017-12-06T00:54:22.716Z,95.84
2017-12-06T00:55:32.191Z,97.45
2017-12-06T00:56:42.182Z,96.41
2017-12-06T00:57:51.634Z,94.98
2017-12-06T00:59:01.352Z,94.79
2017-12-06T01:00:11.074Z,95.94
2017-12-06T01:01:20.793Z,95.94
2017-12-06T01:02:30.801Z,96.03
2017-12-06T01:03:40.516Z,96.03
2017-12-06T01:04:50.234Z,94.7
2017-12-06T01:06:00.471Z,94.79
2017-12-06T01:07:10.459Z,95.36
2017-12-06T01:08:20.444Z,97.92
2017-12-06T01:09:30.437Z,99.07
2017-12-06T01:10:40.185Z,97.74
2017-12-06T01:11:50.170Z,96.88
2017-12-06T01:12:59.901Z,95.27
2017-12-06T01:14:09.624Z,95.46
2017-12-06T01:15:19.680Z,95.84
2017-12-06T01:16:29.662Z,96.6
2017-12-06T01:17:39.390Z,96.03
2017-12-06T01:18:49.398Z,95.94
2017-12-06T01:19:59.379Z,96.12
2017-12-06T01:21:08.840Z,96.03
2017-12-06T01:22:18.555Z,96.12
2017-12-06T01:23:28.535Z,96.12
2017-12-06T01:24:37.983Z,96.6
2017-12-06T01:25:47.978Z,95.46
2017-12-06T01:26:57.721Z,95.84
2017-12-06T01:28:07.716Z,96.12
2017-12-06T01:29:17.187Z,94.42
2017-12-06T01:30:26.923Z,95.55
2017-12-06T01:31:36.397Z,96.6
2017-12-06T01:32:45.604Z,99.92
2017-12-06T01:33:55.338Z,98.4
2017-12-06T01:35:05.082Z,94.89
2017-12-06T01:36:14.555Z,95.75
2017-12-06T01:37:24.354Z,95.08
2017-12-06T01:38:34.107Z,95.84
2017-12-06T01:39:44.092Z,94.6
2017-12-06T01:40:53.808Z,95.75
2017-12-06T01:42:03.526Z,96.41
2017-12-06T01:43:13.240Z,95.27
2017-12-06T01:44:22.968Z,94.6
2017-12-06T01:45:32.950Z,94.89
2017-12-06T01:46:42.672Z,94.98
2017-12-06T01:47:52.731Z,95.36
2017-12-06T01:49:02.508Z,94.7
2017-12-06T01:50:12.542Z,95.65
2017-12-06T01:51:22.526Z,94.98
2017-12-06T01:52:32.005Z,96.6
2017-12-06T01:53:41.982Z,96.03
2017-12-06T01:54:51.971Z,95.36
2017-12-06T01:56:01.697Z,97.55
2017-12-06T01:57:11.269Z,94.89
2017-12-06T01:58:21.601Z,97.07
2017-12-06T01:59:31.313Z,99.26
2017-12-06T02:00:41.299Z,98.88
2017-12-06T02:01:51.020Z,98.02
2017-12-06T02:03:01.009Z,97.45
2017-12-06T02:04:10.732Z,97.45
2017-12-06T02:05:20.697Z,97.64
2017-12-06T02:06:30.678Z,98.88
2017-12-06T02:07:40.402Z,96.03
2017-12-06T02:08:50.116Z,96.69
2017-12-06T02:09:59.832Z,96.22
2017-12-06T02:11:10.070Z,95.84
2017-12-06T02:12:20.056Z,95.84
2017-12-06T02:13:29.246Z,96.88
2017-12-06T02:14:38.961Z,96.03
2017-12-06T02:15:48.686Z,97.64
2017-12-06T02:16:58.410Z,95.84
2017-12-06T02:18:08.129Z,97.17
2017-12-06T02:19:18.118Z,97.74
2017-12-06T02:20:28.103Z,97.27
2017-12-06T02:21:37.823Z,97.17
2017-12-06T02:22:47.804Z,96.03
2017-12-06T02:23:57.795Z,96.98
2017-12-06T02:25:07.257Z,96.98
2017-12-06T02:26:16.718Z,97.07
2017-12-06T02:27:26.172Z,96.69
2017-12-06T02:28:36.153Z,98.5
2017-12-06T02:29:45.880Z,98.31
2017-12-06T02:30:55.872Z,99.16
2017-12-06T02:32:05.866Z,97.45
2017-12-06T02:33:15.590Z,96.22
2017-12-06T02:34:25.585Z,98.88
2017-12-06T02:35:35.579Z,99.99
2017-12-06T02:36:45.044Z,98.97
2017-12-06T02:37:54.770Z,96.69
2017-12-06T02:39:04.756Z,95.46
2017-12-06T02:40:14.540Z,96.5
2017-12-06T02:41:24.529Z,95.75
2017-12-06T02:42:34.254Z,97.74
2017-12-06T02:43:43.979Z,99.99
2017-12-06T02:44:53.764Z,98.4
2017-12-06T02:46:03.487Z,97.36
2017-12-06T02:47:13.478Z,97.55
2017-12-06T02:48:23.466Z,96.03
2017-12-06T02:49:33.608Z,97.07
2017-12-06T02:50:43.590Z,96.31
2017-12-06T02:51:53.050Z,98.31
2017-12-06T02:53:03.047Z,97.92
2017-12-06T02:54:12.773Z,97.45
2017-12-06T02:55:22.762Z,96.88
2017-12-06T02:56:32.767Z,96.88
2017-12-06T02:57:42.759Z,97.27
2017-12-06T02:58:52.750Z,97.36
2017-12-06T03:00:02.205Z,97.45
2017-12-06T03:01:11.937Z,98.88
2017-12-06T03:02:21.939Z,98.4
2017-12-06T03:03:31.408Z,97.07
2017-12-06T03:04:40.869Z,96.88
2017-12-06T03:05:50.595Z,98.5
2017-12-06T03:07:00.593Z,97.55
2017-12-06T03:08:10.581Z,97.55
2017-12-06T03:09:20.045Z,96.6
2017-12-06T03:10:30.038Z,98.5
2017-12-06T03:11:39.499Z,98.79
2017-12-06T03:12:48.965Z,99.99
2017-12-06T03:13:58.689Z,99.16
2017-12-06T03:15:08.418Z,97.74
2017-12-06T03:16:18.423Z,97.27
2017-12-06T03:17:28.470Z,97.07
2017-12-06T03:18:37.936Z,97.64
2017-12-06T03:19:47.955Z,98.79
2017-12-06T03:20:57.948Z,99.99
2017-12-06T03:22:07.718Z,98.97
2017-12-06T03:23:17.177Z,99.99
2017-12-06T03:24:26.918Z,99.99
2017-12-06T03:25:36.919Z,98.4
2017-12-06T03:26:46.903Z,99.07
2017-12-06T03:27:56.637Z,98.31
2017-12-06T03:29:06.361Z,98.88
2017-12-06T03:30:15.865Z,99.99
2017-12-06T03:31:25.607Z,99.07
2017-12-06T03:32:35.609Z,99.26
2017-12-06T03:33:45.331Z,98.97
2017-12-06T03:34:55.342Z,97.83
2017-12-06T03:36:05.340Z,97.07
2017-12-06T03:37:15.393Z,98.97
2017-12-06T03:38:25.148Z,98.12
2017-12-06T03:39:35.151Z,97.55
2017-12-06T03:40:44.878Z,98.21
2017-12-06T03:41:54.880Z,99.99
2017-12-06T03:43:04.607Z,98.97
2017-12-06T03:44:14.335Z,99.83
2017-12-06T03:45:24.062Z,99.99
2017-12-06T03:46:34.056Z,99.83
2017-12-06T03:47:44.035Z,98.97
2017-12-06T03:48:54.025Z,98.5
2017-12-06T03:50:03.492Z,98.59
2017-12-06T03:51:13.218Z,99.99
2017-12-06T03:52:23.131Z,99.26
2017-12-06T03:53:32.863Z,99.26
2017-12-06T03:54:42.596Z,98.69
2017-12-06T03:55:52.585Z,99.99
2017-12-06T03:57:02.313Z,99.26
2017-12-06T03:58:12.313Z,99.99
2017-12-06T03:59:22.305Z,99.99
2017-12-06T04:00:31.767Z,99.99
2017-12-06T04:01:41.496Z,99.83
2017-12-06T04:02:51.227Z,99.73
2017-12-06T04:04:00.956Z,99.99
2017-12-06T04:05:10.689Z,99.99
2017-12-06T04:06:20.684Z,98.97
2017-12-06T04:07:30.679Z,98.4
2017-12-06T04:08:40.673Z,98.69
2017-12-06T04:09:50.399Z,99.54
2017-12-06T04:11:00.395Z,99.73
2017-12-06T04:12:10.394Z,98.97
2017-12-06T04:13:20.397Z,99.99
2017-12-06T04:14:30.400Z,99.99
2017-12-06T04:15:39.859Z,99.07
2017-12-06T04:16:49.580Z,99.35
2017-12-06T04:17:59.308Z,98.69
2017-12-06T04:19:09.302Z,99.07
2017-12-06T04:20:19.340Z,99.16
2017-12-06T04:21:29.065Z,99.99
2017-12-06T04:22:38.811Z,98.59
2017-12-06T04:23:48.540Z,98.97
2017-12-06T04:24:58.531Z,98.21
2017-12-06T04:26:08.524Z,99.83
2017-12-06T04:27:18.268Z,99.99
2017-12-06T04:28:28.015Z,99.99
2017-12-06T04:29:37.743Z,99.07
2017-12-06T04:30:47.741Z,99.99
2017-12-06T04:31:57.735Z,99.99
2017-12-06T04:33:07.794Z,99.99
2017-12-06T04:34:17.527Z,99.35
2017-12-06T04:35:27.520Z,99.99
2017-12-06T04:36:37.525Z,98.5
2017-12-06T04:37:47.530Z,97.64
2017-12-06T04:38:57.529Z,98.69
2017-12-06T04:40:07.535Z,99.07
2017-12-06T04:41:17.268Z,99.73
2017-12-06T04:42:26.763Z,98.59
2017-12-06T04:43:36.789Z,99.07
2017-12-06T04:44:46.794Z,99.35
2017-12-06T04:45:56.517Z,99.99
2017-12-06T04:47:06.521Z,99.99
2017-12-06T04:48:16.258Z,98.97
2017-12-06T04:49:25.721Z,98.97
2017-12-06T04:50:35.456Z,98.79
2017-12-06T04:51:45.447Z,98.79
2017-12-06T04:52:55.439Z,99.26
2017-12-06T04:54:04.903Z,98.4
2017-12-06T04:55:14.370Z,98.97
2017-12-06T04:56:24.118Z,98.69
2017-12-06T04:57:34.113Z,99.54
2017-12-06T04:58:44.119Z,98.5
2017-12-06T04:59:54.131Z,99.99
2017-12-06T05:01:03.587Z,99.99
2017-12-06T05:02:13.317Z,99.64
2017-12-06T05:03:22.777Z,99.99
2017-12-06T05:04:32.505Z,99.99
2017-12-06T05:05:42.234Z,99.16
2017-12-06T05:06:51.970Z,98.69
2017-12-06T05:08:01.718Z,98.02
2017-12-06T05:09:11.711Z,99.99
2017-12-06T05:10:21.439Z,99.99
2017-12-06T05:11:31.439Z,99.73
2017-12-06T05:12:41.167Z,99.99
2017-12-06T05:13:51.172Z,98.88
2017-12-06T05:15:01.149Z,98.79
2017-12-06T05:16:10.873Z,99.16
2017-12-06T05:17:20.347Z,99.99
2017-12-06T05:18:29.795Z,99.99
2017-12-06T05:19:39.797Z,99.99
2017-12-06T05:20:49.258Z,99.26
2017-12-06T05:21:58.717Z,99.99
2017-12-06T05:23:08.460Z,99.73
2017-12-06T05:24:18.186Z,98.97
2017-12-06T05:25:28.173Z,99.35
2017-12-06T05:26:37.900Z,99.35
2017-12-06T05:27:47.633Z,98.69
2017-12-06T05:28:57.390Z,98.97
2017-12-06T05:30:07.387Z,98.79
2017-12-06T05:31:17.392Z,99.99
2017-12-06T05:32:26.854Z,99.99
2017-12-06T05:33:36.318Z,99.99
2017-12-06T05:34:46.320Z,99.99
2017-12-06T05:35:56.042Z,99.99
2017-12-06T05:37:05.769Z,99.35
2017-12-06T05:38:15.767Z,99.99
2017-12-06T05:39:25.760Z,99.07
2017-12-06T05:40:35.228Z,99.64
2017-12-06T05:41:45.226Z,99.35
2017-12-06T05:42:55.227Z,99.99
2017-12-06T05:44:04.953Z,99.99
2017-12-06T05:45:14.411Z,99.99
2017-12-06T05:46:24.140Z,99.99
2017-12-06T05:47:33.859Z,99.97
2017-12-06T05:48:43.851Z,98.97
2017-12-06T05:49:53.066Z,98.59
2017-12-06T05:51:03.061Z,99.73
2017-12-06T05:52:13.050Z,99.99
2017-12-06T05:53:23.094Z,98.79
2017-12-06T05:54:33.082Z,98.97
2017-12-06T05:55:43.113Z,99.64
2017-12-06T05:56:53.112Z,99.07
2017-12-06T05:58:02.851Z,99.99
2017-12-06T05:59:12.843Z,99.99
2017-12-06T06:00:22.572Z,99.07
2017-12-06T06:01:32.582Z,98.5
2017-12-06T06:02:42.623Z,99.99
2017-12-06T06:03:52.352Z,99.44
2017-12-06T06:05:02.548Z,99.73
2017-12-06T06:06:12.252Z,98.79
2017-12-06T06:07:21.981Z,99.99
2017-12-06T06:08:31.987Z,99.99
2017-12-06T06:09:41.982Z,99.97
2017-12-06T06:10:51.715Z,99.21
2017-12-06T06:12:01.712Z,98.17
2017-12-06T06:13:11.448Z,99.99
2017-12-06T06:14:21.184Z,99.83
2017-12-06T06:15:30.917Z,98.88
2017-12-06T06:16:40.907Z,99.07
2017-12-06T06:17:50.366Z,99.07
2017-12-06T06:19:00.096Z,98.97
2017-12-06T06:20:09.554Z,99.99
2017-12-06T06:21:19.582Z,99.44
2017-12-06T06:22:29.315Z,98.59
2017-12-06T06:23:39.302Z,98.4
2017-12-06T06:24:48.763Z,98.88
2017-12-06T06:25:58.755Z,98.97
2017-12-06T06:27:08.224Z,98.97
2017-12-06T06:28:17.690Z,99.83
2017-12-06T06:29:27.677Z,99.99
2017-12-06T06:30:37.403Z,99.92
2017-12-06T06:31:47.458Z,98.88
2017-12-06T06:32:57.197Z,99.35
2017-12-06T06:34:07.295Z,99.99
2017-12-06T06:35:17.449Z,98.69
2017-12-06T06:36:28.256Z,98.17
2017-12-06T06:37:38.327Z,99.73
2017-12-06T06:38:47.568Z,98.97
2017-12-06T06:39:57.306Z,98.31
2017-12-06T06:41:06.776Z,98.97
2017-12-06T06:42:16.502Z,99.99
2017-12-06T06:43:25.973Z,99.99
2017-12-06T06:44:35.723Z,99.99
2017-12-06T06:45:45.736Z,99.3
2017-12-06T06:46:55.746Z,98.79
2017-12-06T06:48:05.532Z,98.74
2017-12-06T06:49:15.297Z,99.73
2017-12-06T06:50:25.057Z,99.02
2017-12-06T06:51:34.560Z,98.64
2017-12-06T06:52:43.777Z,98.79
2017-12-06T06:53:53.900Z,98.36
2017-12-06T06:55:03.470Z,99.54
2017-12-06T06:56:13.641Z,99.99
2017-12-06T06:57:23.644Z,99.99
2017-12-06T06:58:36.021Z,99.99
2017-12-06T06:59:46.610Z,99.99
2017-12-06T07:00:56.347Z,98.83
2017-12-06T07:02:06.342Z,98.74
2017-12-06T07:03:16.341Z,99.02
2017-12-06T07:04:26.069Z,99.02
2017-12-06T07:05:35.812Z,99.02
2017-12-06T07:06:45.808Z,99.97
2017-12-06T07:07:55.535Z,99.99
2017-12-06T07:09:05.266Z,99.99
2017-12-06T07:10:15.260Z,98.74
2017-12-06T07:11:25.268Z,99.99
2017-12-06T07:12:35.267Z,99.99
2017-12-06T07:13:45.257Z,99.4
2017-12-06T07:14:55.278Z,99.4
2017-12-06T07:16:04.744Z,99.21
2017-12-06T07:17:14.739Z,99.88
2017-12-06T07:18:24.206Z,99.99
2017-12-06T07:19:33.669Z,99.3
2017-12-06T07:20:42.870Z,98.55
2017-12-06T07:21:52.864Z,99.02
2017-12-06T07:23:02.866Z,99.99
2017-12-06T07:24:12.860Z,99.99
2017-12-06T07:25:22.850Z,98.93
2017-12-06T07:26:32.313Z,98.36
2017-12-06T07:27:42.103Z,99.99
2017-12-06T07:28:51.304Z,99.99
2017-12-06T07:30:01.353Z,99.99
2017-12-06T07:31:10.814Z,99.99
2017-12-06T07:32:20.814Z,99.99
2017-12-06T07:33:30.806Z,99.99
2017-12-06T07:34:40.584Z,99.78
2017-12-06T07:35:50.048Z,98.64
2017-12-06T07:36:59.794Z,98.45
2017-12-06T07:38:09.262Z,99.02
2017-12-06T07:39:18.780Z,99.3
2017-12-06T07:40:28.954Z,99.02
2017-12-06T07:41:38.675Z,99.99
2017-12-06T07:42:48.711Z,99.99
2017-12-06T07:43:58.185Z,98.93
2017-12-06T07:45:07.920Z,99.4
2017-12-06T07:46:17.408Z,99.99
2017-12-06T07:47:27.161Z,99.99
2017-12-06T07:48:36.891Z,99.99
2017-12-06T07:49:46.880Z,97.88
2017-12-06T07:50:56.938Z,98.45
2017-12-06T07:52:05.869Z,98.93
2017-12-06T07:53:15.335Z,99.11
2017-12-06T07:54:25.329Z,98.64
2017-12-06T07:55:35.323Z,97.97
2017-12-06T07:56:45.314Z,98.64
2017-12-06T07:57:54.774Z,98.64
2017-12-06T07:59:04.511Z,97.78
2017-12-06T08:00:14.601Z,97.41
2017-12-06T08:01:24.061Z,96.45
2017-12-06T08:02:33.795Z,97.22
2017-12-06T08:03:43.525Z,97.41
2017-12-06T08:04:53.325Z,97.12
2017-12-06T08:06:02.795Z,97.12
2017-12-06T08:07:12.534Z,97.12
2017-12-06T08:08:22.285Z,96.36
2017-12-06T08:09:32.290Z,97.88
2017-12-06T08:10:42.321Z,96.55
2017-12-06T08:11:52.317Z,97.88
2017-12-06T08:13:01.780Z,95.89
2017-12-06T08:14:11.776Z,97.6
2017-12-06T08:15:21.769Z,98.55
2017-12-06T08:16:31.502Z,97.6
2017-12-06T08:17:41.492Z,95.41
2017-12-06T08:18:50.960Z,95.6
2017-12-06T08:20:00.962Z,95.89
2017-12-06T08:21:10.690Z,94.65
2017-12-06T08:22:19.895Z,95.41
2017-12-06T08:23:29.626Z,94.56
2017-12-06T08:24:39.659Z,94.18
2017-12-06T08:25:49.488Z,96.36
2017-12-06T08:26:59.422Z,94.56
2017-12-06T08:28:09.202Z,94.84
2017-12-06T08:29:18.691Z,93.89
2017-12-06T08:30:29.113Z,93.89
2017-12-06T08:31:39.126Z,93.13
2017-12-06T08:32:49.118Z,93.41
2017-12-06T08:33:59.114Z,93.89
2017-12-06T08:35:08.637Z,93.7
2017-12-06T08:36:18.234Z,96.26
2017-12-06T08:37:27.591Z,95.51
2017-12-06T08:38:37.236Z,92.94
2017-12-06T08:39:46.881Z,93.18
2017-12-06T08:40:56.184Z,92.8
2017-12-06T08:42:06.097Z,92.08
2017-12-06T08:43:15.670Z,92.61
2017-12-06T08:44:24.973Z,93.08
2017-12-06T08:45:34.526Z,92.32
2017-12-06T08:46:44.395Z,92.51
2017-12-06T08:47:54.270Z,92.89
2017-12-06T08:49:03.897Z,91.75
2017-12-06T08:50:13.196Z,93.27
2017-12-06T08:51:23.254Z,92.03
2017-12-06T08:52:32.828Z,92.22
2017-12-06T08:53:42.674Z,93.55
2017-12-06T08:54:52.239Z,92.22
2017-12-06T08:56:01.887Z,93.18
2017-12-06T08:57:11.718Z,94.42
2017-12-06T08:58:21.233Z,91.85
2017-12-06T08:59:30.453Z,92.03
2017-12-06T09:00:40.465Z,92.7
2017-12-06T09:01:50.197Z,91.66
2017-12-06T09:03:00.196Z,90.7
2017-12-06T09:04:09.924Z,90.42
2017-12-06T09:05:19.927Z,90.33
2017-12-06T09:06:29.929Z,92.51
2017-12-06T09:07:39.445Z,91.47
2017-12-06T09:08:49.529Z,90.61
2017-12-06T09:09:59.260Z,89.85
2017-12-06T09:11:08.720Z,90.42
2017-12-06T09:12:18.720Z,92.03
2017-12-06T09:13:28.710Z,91.85
2017-12-06T09:14:38.797Z,92.13
2017-12-06T09:15:48.639Z,90.42
2017-12-06T09:16:58.373Z,91.56
2017-12-06T09:18:08.363Z,94.51
2017-12-06T09:19:17.828Z,92.8
2017-12-06T09:20:27.299Z,92.22
2017-12-06T09:21:36.770Z,90.61
2017-12-06T09:22:46.667Z,93.08
2017-12-06T09:23:56.405Z,91.28
2017-12-06T09:25:05.605Z,92.51
2017-12-06T09:26:15.336Z,90.52
2017-12-06T09:27:25.070Z,91.75
2017-12-06T09:28:35.140Z,90.8
2017-12-06T09:29:45.237Z,91.37
2017-12-06T09:30:55.231Z,90.33
2017-12-06T09:32:05.231Z,90.23
2017-12-06T09:33:14.963Z,91.18
2017-12-06T09:34:24.709Z,91.08
2017-12-06T09:35:34.699Z,91.56
2017-12-06T09:36:44.470Z,92.41
2017-12-06T09:37:54.196Z,92.99
2017-12-06T09:39:03.658Z,92.99
2017-12-06T09:40:12.855Z,93.27
2017-12-06T09:41:22.913Z,93.37
2017-12-06T09:42:32.658Z,91.94
2017-12-06T09:43:42.389Z,92.13
2017-12-06T09:44:52.384Z,92.8
2017-12-06T09:46:02.130Z,91.18
2017-12-06T09:47:11.596Z,93.37
2017-12-06T09:48:21.058Z,92.22
2017-12-06T09:49:30.793Z,94.32
2017-12-06T09:50:40.256Z,92.99
2017-12-06T09:51:49.723Z,91.37
2017-12-06T09:52:59.200Z,90.33
2017-12-06T09:54:08.928Z,89.75
2017-12-06T09:55:18.654Z,90.33
2017-12-06T09:56:28.646Z,92.61
2017-12-06T09:57:38.385Z,91.56
2017-12-06T09:58:48.380Z,92.41
2017-12-06T09:59:58.416Z,90.56
2017-12-06T10:01:08.156Z,89.66
2017-12-06T10:02:18.144Z,91.47
2017-12-06T10:03:27.873Z,93.41
2017-12-06T10:04:37.875Z,93.6
2017-12-06T10:05:47.615Z,91.89
2017-12-06T10:06:57.356Z,90.56
2017-12-06T10:08:06.552Z,89.61
2017-12-06T10:09:16.549Z,90.28
2017-12-06T10:10:26.024Z,89.89
2017-12-06T10:11:36.023Z,90.84
2017-12-06T10:12:46.036Z,89.8
2017-12-06T10:13:56.031Z,89.61
2017-12-06T10:15:06.100Z,90.75
2017-12-06T10:16:16.092Z,91.89
2017-12-06T10:17:25.565Z,89.7
2017-12-06T10:18:35.557Z,88.85
2017-12-06T10:19:45.026Z,88.85
2017-12-06T10:20:54.762Z,89.89
2017-12-06T10:22:04.490Z,89.89
2017-12-06T10:23:14.212Z,90.66
2017-12-06T10:24:23.946Z,90.18
2017-12-06T10:25:33.945Z,89.42
2017-12-06T10:26:43.998Z,92.27
2017-12-06T10:27:54.003Z,90.47
2017-12-06T10:29:03.731Z,90.37
2017-12-06T10:30:13.192Z,89.14
2017-12-06T10:31:23.186Z,93.6
2017-12-06T10:32:33.022Z,91.42
2017-12-06T10:33:42.753Z,92.94
2017-12-06T10:34:51.955Z,87.99
2017-12-06T10:36:01.949Z,88.75
2017-12-06T10:37:11.945Z,89.7
2017-12-06T10:38:21.677Z,87.8
2017-12-06T10:39:31.456Z,87.71
2017-12-06T10:40:41.188Z,87.32
2017-12-06T10:41:50.661Z,88.94
2017-12-06T10:43:00.390Z,89.23
2017-12-06T10:44:10.530Z,88.94
2017-12-06T10:45:20.533Z,87.61
2017-12-06T10:46:30.270Z,88.75
2017-12-06T10:47:39.736Z,88.18
2017-12-06T10:48:49.734Z,89.89
2017-12-06T10:49:59.465Z,91.42
2017-12-06T10:51:08.928Z,88.75
2017-12-06T10:52:18.658Z,88.99
2017-12-06T10:53:28.652Z,88.94
2017-12-06T10:54:38.376Z,88.85
2017-12-06T10:55:48.366Z,88.37
2017-12-06T10:56:58.361Z,88.18
2017-12-06T10:58:07.833Z,87.52
2017-12-06T10:59:17.829Z,87.61
2017-12-06T11:00:27.560Z,89.04
2017-12-06T11:01:37.028Z,91.61
2017-12-06T11:02:47.030Z,91.99
2017-12-06T11:03:56.761Z,90.7
2017-12-06T11:05:06.764Z,89.08
2017-12-06T11:06:16.232Z,87.65
2017-12-06T11:07:26.231Z,87.46
2017-12-06T11:08:35.713Z,87.75
2017-12-06T11:09:45.448Z,87.94
2017-12-06T11:10:54.911Z,87.18
2017-12-06T11:12:04.911Z,86.13
2017-12-06T11:13:14.377Z,87.18
2017-12-06T11:14:24.371Z,87.65
2017-12-06T11:15:33.572Z,87.37
2017-12-06T11:16:43.396Z,87.65
2017-12-06T11:17:52.861Z,87.85
2017-12-06T11:19:02.854Z,87.75
2017-12-06T11:20:12.847Z,88.7
2017-12-06T11:21:22.844Z,88.79
2017-12-06T11:22:32.577Z,88.89
2017-12-06T11:23:42.306Z,87.56
2017-12-06T11:24:52.040Z,88.04
2017-12-06T11:26:01.777Z,87.56
2017-12-06T11:27:11.500Z,87.75
2017-12-06T11:28:21.504Z,87.56
2017-12-06T11:29:30.973Z,87.75
2017-12-06T11:30:40.757Z,87.65
2017-12-06T11:31:51.010Z,89.08
2017-12-06T11:33:01.003Z,87.75
2017-12-06T11:34:10.795Z,87.75
2017-12-06T11:35:20.555Z,89.65
2017-12-06T11:36:30.012Z,87.85
2017-12-06T11:37:39.744Z,88.23
2017-12-06T11:38:49.506Z,91.65
2017-12-06T11:39:58.977Z,90.51
2017-12-06T11:41:08.175Z,88.79
2017-12-06T11:42:17.903Z,88.04
2017-12-06T11:43:27.956Z,89.94
2017-12-06T11:44:37.953Z,87.94
2017-12-06T11:45:47.684Z,88.13
2017-12-06T11:46:57.680Z,87.94
2017-12-06T11:48:08.876Z,88.79
2017-12-06T11:49:18.342Z,88.7
2017-12-06T11:50:27.805Z,89.94
2017-12-06T11:51:37.535Z,92.6
2017-12-06T11:52:46.996Z,89.27
2017-12-06T11:53:56.466Z,89.75
2017-12-06T11:55:06.195Z,90.89
2017-12-06T11:56:15.656Z,89.47
2017-12-06T11:57:25.661Z,89.37
2017-12-06T11:58:35.395Z,90.61
2017-12-06T11:59:45.129Z,91.17
2017-12-06T12:00:54.864Z,90.51
2017-12-06T12:02:04.592Z,91.17
2017-12-06T12:03:13.790Z,90.32
2017-12-06T12:04:23.518Z,91.27
2017-12-06T12:05:32.979Z,91.46
2017-12-06T12:06:42.976Z,89.37
2017-12-06T12:07:52.514Z,89.08
2017-12-06T12:09:02.241Z,88.23
2017-12-06T12:10:12.241Z,88.89
2017-12-06T12:11:22.244Z,93.27
2017-12-06T12:12:31.492Z,90.89
2017-12-06T12:13:40.959Z,88.7
2017-12-06T12:14:50.419Z,88.84
2017-12-06T12:16:00.459Z,88.6
2017-12-06T12:17:10.195Z,89.94
2017-12-06T12:18:19.922Z,93.08
2017-12-06T12:19:29.913Z,93.6
2017-12-06T12:20:39.906Z,91.7
2017-12-06T12:21:49.365Z,90.94
2017-12-06T12:22:59.091Z,88.75
2017-12-06T12:24:08.818Z,87.6
2017-12-06T12:25:18.821Z,88.13
2017-12-06T12:26:28.559Z,88.46
2017-12-06T12:27:38.025Z,88.13
2017-12-06T12:28:48.020Z,90.99
2017-12-06T12:29:57.762Z,93.27
2017-12-06T12:31:07.227Z,89.75
2017-12-06T12:32:17.230Z,90.65
2017-12-06T12:33:26.427Z,91.99
2017-12-06T12:34:36.420Z,92.18
2017-12-06T12:35:46.148Z,93.22
2017-12-06T12:36:55.882Z,95.22
2017-12-06T12:38:05.881Z,90.46
2017-12-06T12:39:15.623Z,88.08
2017-12-06T12:40:25.358Z,89.7
2017-12-06T12:41:35.090Z,89.03
2017-12-06T12:42:45.089Z,91.31
2017-12-06T12:43:54.569Z,89.51
2017-12-06T12:45:04.029Z,89.22
2017-12-06T12:46:13.755Z,89.84
2017-12-06T12:47:23.554Z,92.65
2017-12-06T12:48:33.548Z,91.03
2017-12-06T12:49:43.540Z,92.18
2017-12-06T12:50:53.014Z,92.36
2017-12-06T12:52:03.022Z,88.75
2017-12-06T12:53:12.589Z,89.13
2017-12-06T12:54:22.581Z,90.75
2017-12-06T12:55:32.699Z,89.22
2017-12-06T12:56:42.427Z,89.22
2017-12-06T12:57:52.158Z,88.89
2017-12-06T12:59:01.943Z,88.89
2017-12-06T13:00:11.707Z,89.47
2017-12-06T13:01:21.455Z,89.56
2017-12-06T13:02:31.454Z,89.08
2017-12-06T13:03:41.453Z,89.65
2017-12-06T13:04:50.650Z,89.27
2017-12-06T13:05:59.856Z,90.51
2017-12-06T13:07:09.586Z,90.51
2017-12-06T13:08:19.588Z,89.75
2017-12-06T13:09:28.782Z,89.94
2017-12-06T13:10:38.243Z,90.42
2017-12-06T13:11:48.244Z,89.94
2017-12-06T13:12:57.973Z,90.32
2017-12-06T13:14:07.699Z,89.94
2017-12-06T13:15:17.170Z,92.99
2017-12-06T13:16:26.630Z,92.7
2017-12-06T13:17:36.360Z,91.08
2017-12-06T13:18:45.823Z,89.94
2017-12-06T13:19:55.816Z,89.94
2017-12-06T13:21:05.541Z,89.18
2017-12-06T13:22:15.274Z,88.89
2017-12-06T13:23:24.473Z,88.7
2017-12-06T13:24:33.945Z,88.51
2017-12-06T13:25:43.946Z,88.99
2017-12-06T13:26:53.666Z,88.99
2017-12-06T13:28:03.658Z,88.99
2017-12-06T13:29:13.656Z,89.84
2017-12-06T13:30:23.389Z,90.99
2017-12-06T13:31:33.396Z,91.65
2017-12-06T13:32:43.125Z,89.84
2017-12-06T13:33:53.130Z,88.89
2017-12-06T13:35:02.860Z,88.79
2017-12-06T13:36:12.587Z,90.61
2017-12-06T13:37:22.318Z,93.27
2017-12-06T13:38:31.783Z,92.03
2017-12-06T13:39:41.521Z,89.75
2017-12-06T13:40:50.984Z,91.56
2017-12-06T13:42:00.987Z,89.27
2017-12-06T13:43:10.723Z,90.03
2017-12-06T13:44:20.456Z,89.56
2017-12-06T13:45:30.446Z,89.65
2017-12-06T13:46:40.170Z,89.47
2017-12-06T13:47:50.196Z,89.94
2017-12-06T13:49:00.208Z,91.17
2017-12-06T13:50:09.943Z,89.94
2017-12-06T13:51:19.728Z,90.7
2017-12-06T13:52:29.260Z,91.94
2017-12-06T13:53:38.999Z,91.46
2017-12-06T13:54:48.789Z,90.51
2017-12-06T13:55:58.794Z,90.99
2017-12-06T13:57:08.789Z,92.41
2017-12-06T13:58:18.825Z,90.32
2017-12-06T13:59:28.837Z,89.65
2017-12-06T14:00:38.852Z,89.75
2017-12-06T14:01:48.583Z,91.65
2017-12-06T14:02:58.583Z,92.13
2017-12-06T14:04:08.315Z,91.46
2017-12-06T14:05:18.315Z,90.8
2017-12-06T14:06:28.145Z,90.7
2017-12-06T14:07:38.135Z,90.8
2017-12-06T14:08:47.859Z,91.75
2017-12-06T14:09:57.362Z,91.56
2017-12-06T14:11:06.830Z,93.27
2017-12-06T14:12:16.830Z,92.89
2017-12-06T14:13:26.834Z,91.65
2017-12-06T14:14:36.299Z,90.7
2017-12-06T14:15:46.369Z,89.84
2017-12-06T14:16:56.080Z,89.75
2017-12-06T14:18:05.824Z,92.03
2017-12-06T14:19:15.549Z,90.8
2017-12-06T14:20:25.283Z,90.51
2017-12-06T14:21:35.010Z,92.99
2017-12-06T14:22:44.759Z,92.03
2017-12-06T14:23:54.570Z,91.17
2017-12-06T14:25:04.563Z,88.51
2017-12-06T14:26:14.298Z,89.47
2017-12-06T14:27:24.294Z,88.99
2017-12-06T14:28:34.305Z,89.47
2017-12-06T14:29:44.308Z,90.42
2017-12-06T14:30:54.080Z,90.42
2017-12-06T14:32:04.086Z,88.99
2017-12-06T14:33:13.283Z,89.65
2017-12-06T14:34:23.011Z,90.03
2017-12-06T14:35:32.745Z,89.56
2017-12-06T14:36:42.750Z,89.65
2017-12-06T14:37:52.541Z,88.7
2017-12-06T14:39:02.541Z,89.08
2017-12-06T14:40:12.532Z,89.94
2017-12-06T14:41:22.266Z,89.75
2017-12-06T14:42:32.309Z,89.75
2017-12-06T14:43:41.510Z,89.65
2017-12-06T14:44:51.289Z,89.75
2017-12-06T14:46:01.105Z,91.46
2017-12-06T14:47:11.194Z,89.75
2017-12-06T14:48:21.233Z,90.8
2017-12-06T14:49:31.210Z,89.84
2017-12-06T14:50:41.205Z,89.65
2017-12-06T14:51:51.199Z,90.61
2017-12-06T14:53:01.251Z,90.7
2017-12-06T14:54:10.985Z,89.65
2017-12-06T14:55:20.713Z,90.51
2017-12-06T14:56:30.856Z,89.84
2017-12-06T14:57:40.352Z,90.89
2017-12-06T14:58:50.177Z,89.65
2017-12-06T14:59:59.913Z,90.99
2017-12-06T15:01:09.644Z,90.99
2017-12-06T15:02:19.109Z,91.84